Time;durP1;ratioP1;P1;durP2;ratioP2;P2;SDS_P1;SDS_P2;PMS_P1;PMS_P2;Temp;Humidity;BMP_temperature;BMP_pressure;BME280_temperature;BME280_humidity;BME280_pressure;Samples;Min_cycle;Max_cycle;Signal;HPM_P1;HPM_P2
2023/07/31 00:02:15;;;;;;;5.95;3.53;;;;;;;16.10;78.50;100582.88;7396054;19;20019;-66
2023/07/31 00:04:50;;;;;;;4.78;3.25;;;;;;;16.08;78.84;100576.81;7395634;19;20011;-66
2023/07/31 00:07:19;;;;;;;7.07;4.07;;;;;;;16.06;79.00;100576.03;7394363;19;20374;-66
2023/07/31 00:09:47;;;;;;;5.20;3.17;;;;;;;16.05;79.36;100576.97;7395834;19;20007;-66
2023/07/31 00:12:16;;;;;;;5.72;3.58;;;;;;;16.03;79.72;100577.97;7395843;19;20010;-66
2023/07/31 00:14:45;;;;;;;4.43;3.22;;;;;;;15.98;79.74;100567.59;7395653;19;20014;-66
2023/07/31 00:17:16;;;;;;;4.97;3.30;;;;;;;16.04;80.16;100569.94;7393993;19;20019;-66
2023/07/31 00:19:45;;;;;;;6.80;3.83;;;;;;;16.03;80.22;100568.22;7395605;19;20010;-65
2023/07/31 00:22:14;;;;;;;4.78;3.33;;;;;;;16.02;80.16;100563.84;7395169;19;20389;-66
2023/07/31 00:24:42;;;;;;;4.70;3.30;;;;;;;16.02;80.60;100565.66;7395382;19;20014;-66
2023/07/31 00:27:11;;;;;;;6.40;3.40;;;;;;;16.03;80.84;100568.22;7393131;19;20082;-66
2023/07/31 00:29:39;;;;;;;4.72;3.97;;;;;;;16.04;81.10;100561.16;7395269;19;20018;-65
2023/07/31 00:32:09;;;;;;;5.68;3.60;;;;;;;16.04;81.34;100555.88;7393539;19;20082;-66
2023/07/31 00:34:40;;;;;;;6.55;3.78;;;;;;;16.04;81.61;100546.13;7395161;19;20082;-65
2023/07/31 00:37:09;;;;;;;4.47;3.63;;;;;;;16.06;81.69;100543.41;7393501;19;20018;-66
2023/07/31 00:39:38;;;;;;;6.95;3.60;;;;;;;16.05;81.79;100546.97;7394663;19;20485;-65
2023/07/31 00:42:07;;;;;;;4.35;3.38;;;;;;;16.05;81.70;100542.56;7395019;19;20077;-65
2023/07/31 00:44:36;;;;;;;6.28;3.50;;;;;;;16.07;81.85;100545.13;7394511;19;20423;-65
2023/07/31 00:47:04;;;;;;;6.50;3.75;;;;;;;16.06;82.13;100541.63;7393679;19;20074;-66
2023/07/31 00:49:33;;;;;;;3.75;3.40;;;;;;;16.06;82.13;100525.75;7394706;19;20026;-66
2023/07/31 00:52:05;;;;;;;8.70;3.35;;;;;;;16.05;82.23;100521.41;7394269;19;20086;-66
2023/07/31 00:54:33;;;;;;;7.03;3.35;;;;;;;16.05;82.33;100524.03;7395100;19;20412;-66
2023/07/31 00:57:02;;;;;;;6.43;3.92;;;;;;;16.06;82.50;100522.25;7392500;19;20090;-66
2023/07/31 00:59:31;;;;;;;5.45;3.70;;;;;;;16.07;82.52;100526.59;7392597;19;20014;-66
2023/07/31 01:01:59;;;;;;;4.18;3.78;;;;;;;16.05;82.63;100516.09;7394412;19;20011;-65
2023/07/31 01:04:28;;;;;;;5.22;3.47;;;;;;;16.04;82.30;100519.66;7394416;19;20074;-66
2023/07/31 01:07:04;;;;;;;6.00;3.55;;;;;;;16.04;82.49;100517.03;7392814;19;20018;-66
2023/07/31 01:09:42;;;;;;;6.97;4.20;;;;;;;16.02;83.00;100513.59;7395141;19;20010;-66
2023/07/31 01:12:16;;;;;;;7.03;4.57;;;;;;;16.01;82.73;100501.31;7402169;19;20371;-65
2023/07/31 01:14:54;;;;;;;6.28;3.88;;;;;;;16.00;83.03;100496.94;7402003;19;20034;-65
2023/07/31 01:17:23;;;;;;;5.18;3.92;;;;;;;16.00;82.97;100496.94;7399145;19;20357;-64
2023/07/31 01:19:52;;;;;;;5.95;3.53;;;;;;;15.98;82.99;100490.84;7401078;19;20011;-66
2023/07/31 01:22:41;;;;;;;4.47;3.80;;;;;;;15.98;83.38;100492.66;7401047;19;20533;-66
2023/07/31 01:25:34;;;;;;;5.18;3.58;;;;;;;15.96;83.25;100495.34;7401812;19;20015;-66
2023/07/31 01:28:10;;;;;;;5.93;3.92;;;;;;;15.93;83.26;100490.22;7398439;19;20027;-66
2023/07/31 01:30:44;;;;;;;7.57;3.78;;;;;;;15.91;83.56;100494.72;7400287;19;20014;-66
2023/07/31 01:33:13;;;;;;;5.00;3.45;;;;;;;15.89;83.37;100496.59;7398175;19;20010;-66
2023/07/31 01:35:41;;;;;;;4.95;4.22;;;;;;;15.90;83.59;100498.31;7400375;19;20814;-67
2023/07/31 01:38:10;;;;;;;3.70;3.30;;;;;;;15.87;83.82;100496.69;7398577;19;20062;-66
2023/07/31 01:40:38;;;;;;;8.73;3.70;;;;;;;15.84;83.82;100495.97;7400422;19;20006;-65
2023/07/31 01:43:09;;;;;;;6.65;3.47;;;;;;;15.82;83.82;100492.53;7397766;19;20014;-65
2023/07/31 01:45:38;;;;;;;7.78;3.15;;;;;;;15.78;83.86;100489.13;7400233;19;20070;-65
2023/07/31 01:48:07;;;;;;;7.45;3.25;;;;;;;15.76;84.01;100486.56;7398049;19;20023;-66
2023/07/31 01:50:35;;;;;;;5.80;3.25;;;;;;;15.75;84.16;100489.28;7400125;19;20375;-66
2023/07/31 01:53:04;;;;;;;6.82;3.03;;;;;;;15.71;84.20;100478.00;7399943;19;20011;-66
2023/07/31 01:55:32;;;;;;;7.65;3.35;;;;;;;15.69;84.16;100485.13;7397345;19;20037;-66
2023/07/31 01:58:01;;;;;;;7.88;3.38;;;;;;;15.66;84.47;100485.28;7397599;19;20014;-66
2023/07/31 02:00:32;;;;;;;10.93;3.25;;;;;;;15.63;84.34;100491.59;7397357;19;20463;-66
2023/07/31 02:03:02;;;;;;;8.73;2.97;;;;;;;15.62;84.44;100491.66;7399722;19;20066;-66
2023/07/31 02:05:30;;;;;;;5.18;3.45;;;;;;;15.59;84.52;100483.88;7399943;19;20051;-68
2023/07/31 02:07:58;;;;;;;6.80;3.03;;;;;;;15.58;84.59;100482.13;7397411;19;20089;-66
2023/07/31 02:10:27;;;;;;;6.00;3.10;;;;;;;15.57;84.62;100483.94;7399403;19;20501;-66
2023/07/31 02:12:55;;;;;;;4.80;2.85;;;;;;;15.55;84.56;100477.84;7399641;19;20031;-66
2023/07/31 02:15:24;;;;;;;5.72;3.08;;;;;;;15.53;84.76;100484.16;7399309;19;20086;-65
2023/07/31 02:17:55;;;;;;;6.13;3.03;;;;;;;15.53;85.08;100486.78;7396462;19;20473;-66
2023/07/31 02:20:23;;;;;;;9.20;3.70;;;;;;;15.51;84.77;100481.56;7399720;19;20078;-66
2023/07/31 02:22:52;;;;;;;6.30;2.70;;;;;;;15.51;85.03;100486.03;7393960;19;20006;-66
2023/07/31 02:25:20;;;;;;;7.93;3.47;;;;;;;15.50;85.03;100481.66;7399216;19;20074;-66
2023/07/31 02:27:49;;;;;;;9.80;3.50;;;;;;;15.48;84.90;100473.81;7396986;19;20014;-66
2023/07/31 02:30:17;;;;;;;7.53;2.53;;;;;;;15.47;85.30;100470.28;7398113;19;20399;-66
2023/07/31 02:32:46;;;;;;;6.30;3.20;;;;;;;15.46;85.17;100471.22;7396428;19;20019;-68
2023/07/31 02:35:18;;;;;;;10.45;3.17;;;;;;;15.45;85.47;100466.84;7398906;19;20074;-68
2023/07/31 02:37:47;;;;;;;7.22;3.65;;;;;;;15.44;85.40;100469.56;7396238;19;20014;-68
2023/07/31 02:40:16;;;;;;;6.22;2.55;;;;;;;15.42;85.35;100463.50;7398266;19;20394;-68
2023/07/31 02:42:44;;;;;;;9.80;2.75;;;;;;;15.40;85.38;100460.91;7398208;19;20505;-68
2023/07/31 02:45:13;;;;;;;7.47;2.70;;;;;;;15.39;85.44;100466.28;7396525;19;20074;-68
2023/07/31 02:47:41;;;;;;;7.28;2.78;;;;;;;15.37;85.15;100462.88;7396642;19;20014;-68
2023/07/31 02:50:10;;;;;;;6.03;2.60;;;;;;;15.38;85.41;100461.91;7398463;19;20082;-67
2023/07/31 02:52:41;;;;;;;6.18;3.30;;;;;;;15.37;85.43;100463.72;7398438;19;20014;-68
2023/07/31 02:55:10;;;;;;;8.02;2.72;;;;;;;15.37;85.28;100457.59;7398553;19;20078;-67
2023/07/31 02:57:38;;;;;;;4.43;2.40;;;;;;;15.36;85.20;100462.00;7395780;19;20074;-68
2023/07/31 03:00:09;;;;;;;5.32;2.65;;;;;;;15.34;85.60;100458.56;7397950;19;20027;-68
2023/07/31 03:02:38;;;;;;;6.82;2.95;;;;;;;15.36;85.33;100463.78;7398524;19;20021;-68
2023/07/31 03:05:06;;;;;;;5.53;1.80;;;;;;;15.34;85.52;100458.56;7397407;19;20062;-67
2023/07/31 03:07:35;;;;;;;4.32;2.30;;;;;;;15.32;85.63;100450.69;7395929;19;20035;-67
2023/07/31 03:10:07;;;;;;;4.45;2.28;;;;;;;15.32;85.75;100450.69;7396950;19;20078;-68
2023/07/31 03:12:35;;;;;;;8.40;2.92;;;;;;;15.32;85.59;100447.22;7397167;19;20511;-68
2023/07/31 03:15:04;;;;;;;5.10;2.55;;;;;;;15.33;85.39;100451.59;7394974;19;20078;-68
2023/07/31 03:17:32;;;;;;;5.10;2.10;;;;;;;15.30;85.36;100442.00;7395074;19;20034;-68
2023/07/31 03:20:01;;;;;;;6.28;2.22;;;;;;;15.30;85.48;100451.69;7397459;19;20023;-68
2023/07/31 03:22:29;;;;;;;6.53;2.42;;;;;;;15.29;85.61;100445.56;7397396;19;20023;-68
2023/07/31 03:24:58;;;;;;;4.57;2.30;;;;;;;15.29;85.43;100445.56;7396866;19;20485;-68
2023/07/31 03:27:29;;;;;;;7.57;2.95;;;;;;;15.26;85.65;100435.13;7395349;19;20027;-67
2023/07/31 03:30:04;;;;;;;3.97;2.40;;;;;;;15.29;85.28;100435.00;7394791;19;20011;-67
2023/07/31 03:32:32;;;;;;;6.53;2.50;;;;;;;15.30;85.28;100438.50;7394246;19;20174;-67
2023/07/31 03:35:01;;;;;;;5.18;3.00;;;;;;;15.29;85.21;100437.66;7396741;19;20010;-67
2023/07/31 03:37:29;;;;;;;7.68;2.53;;;;;;;15.30;85.40;100438.50;7395292;19;20035;-66
2023/07/31 03:39:57;;;;;;;8.40;2.38;;;;;;;15.29;85.86;100439.41;7396382;19;20073;-67
2023/07/31 03:42:29;;;;;;;6.20;2.20;;;;;;;15.27;86.04;100436.00;7396460;19;20010;-67
2023/07/31 03:44:57;;;;;;;6.53;2.08;;;;;;;15.24;85.76;100428.19;7396849;19;20014;-67
2023/07/31 03:47:25;;;;;;;7.32;2.60;;;;;;;15.22;85.85;100432.72;7395254;19;20086;-67
2023/07/31 03:49:54;;;;;;;3.90;2.20;;;;;;;15.20;86.49;100429.28;7396265;19;20074;-67
2023/07/31 03:52:22;;;;;;;3.70;2.17;;;;;;;15.16;86.25;100423.28;7397051;19;20007;-67
2023/07/31 03:54:51;;;;;;;4.50;2.20;;;;;;;15.14;86.43;100431.28;7396546;19;20027;-67
2023/07/31 03:57:19;;;;;;;8.50;2.97;;;;;;;15.12;86.60;100424.34;7395086;19;20150;-67
2023/07/31 03:59:50;;;;;;;6.10;2.38;;;;;;;15.10;87.03;100424.44;7395541;19;20015;-67
2023/07/31 04:02:19;;;;;;;5.13;2.00;;;;;;;15.10;86.83;100428.84;7394261;19;20052;-67
2023/07/31 04:04:47;;;;;;;11.68;2.70;;;;;;;15.09;87.17;100427.13;7394342;19;20007;-66
2023/07/31 04:07:15;;;;;;;5.60;2.25;;;;;;;15.08;86.75;100422.78;7394425;19;20429;-66
2023/07/31 04:09:44;;;;;;;5.88;2.53;;;;;;;15.07;87.20;100419.25;7394052;19;20015;-67
2023/07/31 04:12:12;;;;;;;4.82;2.53;;;;;;;15.08;87.14;100423.63;7394424;19;20019;-67
2023/07/31 04:14:41;;;;;;;6.35;2.60;;;;;;;15.09;87.21;100420.06;7395301;19;20018;-66
2023/07/31 04:17:12;;;;;;;6.07;2.72;;;;;;;15.09;87.25;100421.81;7393849;19;20014;-66
2023/07/31 04:19:40;;;;;;;4.88;2.30;;;;;;;15.10;87.11;100421.78;7396221;19;20074;-67
2023/07/31 04:22:08;;;;;;;6.25;2.45;;;;;;;15.11;87.27;100417.34;7395557;19;20082;-67
2023/07/31 04:24:37;;;;;;;7.20;3.00;;;;;;;15.13;87.38;100416.34;7394723;19;20384;-67
2023/07/31 04:27:06;;;;;;;7.63;2.67;;;;;;;15.14;87.26;100426.00;7394043;19;20014;-67
2023/07/31 04:29:34;;;;;;;17.58;9.40;;;;;;;15.16;86.98;100420.63;7394686;19;20081;-67
2023/07/31 04:32:03;;;;;;;7.97;3.42;;;;;;;15.18;86.99;100416.16;7393285;19;20028;-66
2023/07/31 04:34:34;;;;;;;7.13;3.50;;;;;;;15.21;86.88;100409.84;7394414;19;20031;-67
2023/07/31 04:37:02;;;;;;;6.07;3.00;;;;;;;15.22;86.96;100404.50;7393079;19;20485;-67
2023/07/31 04:39:31;;;;;;;6.65;2.80;;;;;;;15.24;86.81;100399.13;7392749;19;20035;-67
2023/07/31 04:41:59;;;;;;;6.05;2.30;;;;;;;15.24;86.75;100402.66;7392755;19;20074;-67
2023/07/31 04:44:28;;;;;;;9.00;2.78;;;;;;;15.25;87.43;100404.38;7394853;19;20070;-67
2023/07/31 04:46:56;;;;;;;5.50;2.45;;;;;;;15.29;87.11;100407.69;7399071;19;20544;-66
2023/07/31 04:49:24;;;;;;;5.60;2.28;;;;;;;15.29;87.19;100408.56;7402175;19;20032;-67
2023/07/31 04:51:55;;;;;;;7.50;2.60;;;;;;;15.31;87.53;100403.22;7402081;19;20014;-68
2023/07/31 04:54:24;;;;;;;9.90;2.80;;;;;;;15.31;87.30;100398.75;7399167;19;20416;-67
2023/07/31 04:56:59;;;;;;;5.95;2.58;;;;;;;15.35;87.87;100402.13;7398924;19;20082;-68
2023/07/31 04:59:28;;;;;;;4.43;2.03;;;;;;;15.37;88.11;100400.28;7398664;19;20090;-67
2023/07/31 05:01:56;;;;;;;7.47;2.35;;;;;;;15.39;87.91;100410.78;7401426;19;20501;-67
2023/07/31 05:04:24;;;;;;;4.75;2.40;;;;;;;15.39;88.54;100409.00;7401391;19;20083;-67
2023/07/31 05:06:55;;;;;;;6.78;3.00;;;;;;;15.39;88.38;100405.47;7399924;19;20166;-67
2023/07/31 05:09:24;;;;;;;9.48;2.67;;;;;;;15.37;88.51;100404.72;7401637;19;20098;-68
2023/07/31 05:11:52;;;;;;;9.20;3.30;;;;;;;15.36;88.52;100409.13;7401508;19;20081;-68
2023/07/31 05:14:21;;;;;;;10.02;3.22;;;;;;;15.34;89.42;100408.34;7400573;19;20082;-68
2023/07/31 05:16:49;;;;;;;8.13;2.78;;;;;;;15.31;89.80;100405.84;7399306;19;20487;-68
2023/07/31 05:19:17;;;;;;;6.28;3.15;;;;;;;15.27;90.23;100405.13;7398091;19;20011;-68
2023/07/31 05:21:46;;;;;;;5.50;2.75;;;;;;;15.23;90.34;100402.72;7398215;19;20070;-68
2023/07/31 05:24:17;;;;;;;7.82;3.35;;;;;;;15.20;91.08;100401.06;7400909;19;20090;-68
2023/07/31 05:26:45;;;;;;;6.97;3.42;;;;;;;15.19;90.72;100396.72;7399156;19;20417;-68
2023/07/31 05:29:14;;;;;;;9.43;3.42;;;;;;;15.17;91.39;100389.78;7401043;19;20035;-67
2023/07/31 05:31:42;;;;;;;7.28;3.53;;;;;;;15.18;91.45;100388.84;7398684;19;20048;-67
2023/07/31 05:34:11;;;;;;;7.55;3.10;;;;;;;15.19;91.66;100390.56;7400410;19;20018;-67
2023/07/31 05:36:39;;;;;;;4.05;2.78;;;;;;;15.21;91.72;100383.44;7397509;19;20090;-67
2023/07/31 05:39:08;;;;;;;4.57;3.40;;;;;;;15.22;92.00;100385.16;7398078;19;20082;-67
2023/07/31 05:41:39;;;;;;;6.53;3.13;;;;;;;15.23;91.49;100386.88;7397537;19;20020;-67
2023/07/31 05:44:07;;;;;;;12.13;3.25;;;;;;;15.25;91.37;100395.56;7397566;19;20419;-67
2023/07/31 05:46:36;;;;;;;3.85;2.80;;;;;;;15.25;91.71;100387.63;7398424;19;20086;-67
2023/07/31 05:49:05;;;;;;;6.78;2.92;;;;;;;15.26;92.07;100390.19;7400136;19;20018;-67
2023/07/31 05:51:33;;;;;;;7.32;3.25;;;;;;;15.27;91.79;100388.44;7400242;19;20015;-67
2023/07/31 05:54:01;;;;;;;7.88;3.50;;;;;;;15.26;91.71;100390.19;7399813;19;20073;-67
2023/07/31 05:56:31;;;;;;;11.00;3.50;;;;;;;15.27;92.14;100384.00;7398632;19;20423;-67
2023/07/31 05:59:02;;;;;;;6.03;2.72;;;;;;;15.26;91.65;100382.28;7396942;19;20423;-67
2023/07/31 06:01:31;;;;;;;5.60;3.38;;;;;;;15.27;92.31;100391.06;7400311;19;20014;-67
2023/07/31 06:03:59;;;;;;;7.80;2.72;;;;;;;15.28;92.36;100383.06;7399896;19;20015;-67
2023/07/31 06:06:28;;;;;;;5.57;2.92;;;;;;;15.28;92.14;100379.59;7399088;19;20028;-68
2023/07/31 06:08:56;;;;;;;8.00;3.30;;;;;;;15.27;92.55;100385.78;7399500;19;20083;-68
2023/07/31 06:11:25;;;;;;;6.10;2.88;;;;;;;15.25;92.46;100380.59;7399798;19;20069;-68
2023/07/31 06:13:53;;;;;;;4.63;2.97;;;;;;;15.23;93.28;100378.94;7399610;19;20018;-68
2023/07/31 06:16:25;;;;;;;6.65;3.00;;;;;;;15.21;92.48;100378.16;7398413;19;20377;-68
2023/07/31 06:18:53;;;;;;;5.40;3.35;;;;;;;15.19;93.16;100374.72;7398290;19;20216;-68
2023/07/31 06:21:22;;;;;;;8.25;3.70;;;;;;;15.16;93.65;100370.44;7396825;19;20078;-68
2023/07/31 06:23:50;;;;;;;7.60;3.63;;;;;;;15.14;93.55;100373.16;7398632;19;20031;-68
2023/07/31 06:26:19;;;;;;;7.97;3.80;;;;;;;15.12;94.54;100371.50;7398855;19;20031;-69
2023/07/31 06:28:47;;;;;;;10.93;5.30;;;;;;;15.11;94.99;100372.44;7396998;19;20066;-69
2023/07/31 06:31:23;;;;;;;5.43;3.38;;;;;;;15.09;95.37;100371.63;7397250;19;20089;-67
2023/07/31 06:34:00;;;;;;;9.98;3.95;;;;;;;15.07;95.94;100365.59;7398389;19;20063;-68
2023/07/31 06:36:28;;;;;;;7.38;3.88;;;;;;;15.05;95.62;100373.59;7396731;19;20014;-67
2023/07/31 06:38:57;;;;;;;5.72;3.28;;;;;;;15.03;95.72;100372.78;7397415;19;20036;-68
2023/07/31 06:41:25;;;;;;;6.60;3.20;;;;;;;15.03;96.91;100364.03;7398622;19;20082;-68
2023/07/31 06:43:53;;;;;;;8.02;3.85;;;;;;;15.01;97.08;100365.88;7398276;19;20074;-68
2023/07/31 06:46:22;;;;;;;10.88;3.75;;;;;;;14.99;97.58;100361.50;7396853;19;20070;-68
2023/07/31 06:48:50;;;;;;;5.85;3.70;;;;;;;14.99;97.42;100363.28;7398188;19;20029;-68
2023/07/31 06:51:21;;;;;;;9.23;4.20;;;;;;;15.00;98.23;100365.03;7398186;19;20070;-68
2023/07/31 06:53:50;;;;;;;11.82;3.80;;;;;;;15.01;98.19;100366.69;7396385;19;20082;-69
2023/07/31 06:56:18;;;;;;;9.57;4.25;;;;;;;15.04;98.82;100361.28;7397588;19;20070;-69
2023/07/31 06:58:47;;;;;;;9.40;4.32;;;;;;;15.08;99.12;100359.38;7396452;19;20018;-69
2023/07/31 07:01:15;;;;;;;6.25;3.72;;;;;;;15.13;100.00;100368.78;7397158;19;20480;-69
2023/07/31 07:03:43;;;;;;;7.47;4.60;;;;;;;15.20;99.96;100371.13;7395988;19;20014;-68
2023/07/31 07:06:12;;;;;;;9.32;3.88;;;;;;;15.22;100.00;100356.94;7397257;19;20056;-68
2023/07/31 07:08:43;;;;;;;7.40;3.83;;;;;;;15.25;100.00;100363.84;7395701;19;20506;-68
2023/07/31 07:11:11;;;;;;;7.13;3.85;;;;;;;15.26;100.00;100362.94;7398783;19;20078;-69
2023/07/31 07:13:40;;;;;;;6.28;3.65;;;;;;;15.26;100.00;100362.94;7398165;19;20032;-69
2023/07/31 07:16:08;;;;;;;7.68;3.80;;;;;;;15.26;100.00;100370.84;7396819;19;20082;-68
2023/07/31 07:18:36;;;;;;;6.13;4.10;;;;;;;15.28;100.00;100367.22;7396414;19;20010;-69
2023/07/31 07:21:05;;;;;;;7.75;4.22;;;;;;;15.32;100.00;100368.78;7395410;19;20075;-68
2023/07/31 07:23:33;;;;;;;8.90;4.28;;;;;;;15.36;100.00;100368.63;7397026;19;20091;-69
2023/07/31 07:26:04;;;;;;;8.00;4.00;;;;;;;15.39;100.00;100379.94;7394641;19;20062;-68
2023/07/31 07:28:33;;;;;;;11.75;4.55;;;;;;;15.41;100.00;100375.41;7395390;19;20014;-68
2023/07/31 07:31:01;;;;;;;7.95;3.78;;;;;;;15.46;100.00;100375.19;7395438;19;20074;-68
2023/07/31 07:33:30;;;;;;;8.15;4.30;;;;;;;15.52;100.00;100374.03;7394391;19;20074;-68
2023/07/31 07:36:02;;;;;;;6.55;3.75;;;;;;;15.54;100.00;100374.81;7396086;19;20007;-68
2023/07/31 07:38:30;;;;;;;10.93;4.05;;;;;;;15.56;100.00;100372.97;7395434;19;20518;-68
2023/07/31 07:40:59;;;;;;;7.15;4.18;;;;;;;15.58;100.00;100366.69;7396237;19;20074;-68
2023/07/31 07:43:30;;;;;;;7.93;4.13;;;;;;;15.62;100.00;100364.75;7396717;19;20098;-68
2023/07/31 07:45:58;;;;;;;5.90;3.70;;;;;;;15.66;100.00;100363.66;7394831;19;20100;-68
2023/07/31 07:48:27;;;;;;;6.10;3.53;;;;;;;15.68;100.00;100364.41;7394474;19;20073;-69
2023/07/31 07:50:56;;;;;;;5.90;3.80;;;;;;;15.69;100.00;100362.66;7394327;19;20497;-68
2023/07/31 07:53:24;;;;;;;7.28;4.35;;;;;;;15.70;100.00;100364.38;7396038;19;20074;-69
2023/07/31 07:55:53;;;;;;;7.28;4.18;;;;;;;15.69;100.00;100365.28;7395272;19;20419;-70
2023/07/31 07:58:21;;;;;;;9.48;4.03;;;;;;;15.70;100.00;100362.56;7395622;19;20007;-69
2023/07/31 08:00:55;;;;;;;8.95;4.22;;;;;;;15.72;100.00;100359.84;7394799;19;20010;-68
2023/07/31 08:03:24;;;;;;;6.25;3.55;;;;;;;15.74;100.00;100364.13;7396048;19;20006;-68
2023/07/31 08:05:52;;;;;;;9.50;3.75;;;;;;;15.74;100.00;100365.91;7394546;19;20347;-69
2023/07/31 08:08:21;;;;;;;6.53;3.78;;;;;;;15.73;100.00;100356.25;7393753;19;20066;-69
2023/07/31 08:10:49;;;;;;;6.05;3.75;;;;;;;15.71;100.00;100359.00;7394654;19;20077;-68
2023/07/31 08:13:18;;;;;;;5.30;3.58;;;;;;;15.69;100.00;100347.63;7394398;19;20024;-68
2023/07/31 08:15:46;;;;;;;6.63;3.78;;;;;;;15.69;100.00;100352.06;7394527;19;20548;-68
2023/07/31 08:18:17;;;;;;;7.18;3.92;;;;;;;15.71;100.00;100352.81;7394519;19;20070;-68
2023/07/31 08:20:46;;;;;;;6.65;3.50;;;;;;;15.76;100.00;100353.47;7393673;19;20070;-68
2023/07/31 08:23:15;;;;;;;6.70;3.80;;;;;;;15.81;100.00;100348.81;7392845;19;20033;-68
2023/07/31 08:25:43;;;;;;;7.80;4.28;;;;;;;15.83;100.00;100349.59;7394147;19;20461;-68
2023/07/31 08:28:11;;;;;;;6.93;4.25;;;;;;;15.89;100.00;100343.16;7393347;19;20070;-68
2023/07/31 08:30:41;;;;;;;6.93;4.03;;;;;;;15.94;100.00;100354.38;7393659;19;20035;-68
2023/07/31 08:33:10;;;;;;;9.48;4.40;;;;;;;16.00;100.00;100351.44;7393200;19;20014;-68
2023/07/31 08:35:41;;;;;;;7.38;4.60;;;;;;;16.05;100.00;100346.75;7394903;19;20074;-68
2023/07/31 08:38:09;;;;;;;7.13;4.00;;;;;;;16.08;100.00;100354.53;7395173;19;20028;-68
2023/07/31 08:40:39;;;;;;;9.93;4.30;;;;;;;16.12;100.00;100355.22;7392225;19;20519;-68
2023/07/31 08:43:08;;;;;;;7.43;4.60;;;;;;;16.16;100.00;100354.13;7394732;19;20025;-68
2023/07/31 08:45:37;;;;;;;8.98;4.40;;;;;;;16.20;100.00;100346.88;7393874;19;20494;-68
2023/07/31 08:48:06;;;;;;;7.50;3.80;;;;;;;16.27;100.00;100348.28;7394259;19;20015;-68
2023/07/31 08:50:35;;;;;;;8.10;3.85;;;;;;;16.39;99.77;100344.13;7394084;19;20037;-68
2023/07/31 08:53:06;;;;;;;7.38;4.05;;;;;;;16.50;99.60;100338.28;7393805;19;20014;-68
2023/07/31 08:55:35;;;;;;;9.80;3.53;;;;;;;16.62;99.01;100332.34;7394355;19;20086;-68
2023/07/31 08:58:07;;;;;;;7.72;3.60;;;;;;;16.74;98.16;100333.47;7391491;19;20074;-68
2023/07/31 09:00:36;;;;;;;10.05;4.10;;;;;;;16.86;96.52;100334.59;7392822;19;20018;-68
2023/07/31 09:03:10;;;;;;;10.50;3.55;;;;;;;16.97;96.04;100326.94;7393881;19;20028;-69
2023/07/31 09:05:42;;;;;;;7.15;3.65;;;;;;;17.09;94.92;100331.56;7393489;19;20481;-67
2023/07/31 09:08:14;;;;;;;6.70;3.30;;;;;;;17.22;94.58;100328.22;7393564;19;20017;-68
2023/07/31 09:10:46;;;;;;;4.97;3.33;;;;;;;17.36;92.34;100320.38;7392134;19;20041;-68
2023/07/31 09:13:15;;;;;;;4.85;3.08;;;;;;;17.51;92.12;100318.59;7391357;19;20011;-68
2023/07/31 09:16:06;;;;;;;7.07;2.80;;;;;;;17.67;89.24;100326.53;7392635;19;20017;-68
2023/07/31 09:18:34;;;;;;;7.72;3.25;;;;;;;17.78;89.77;100325.06;7394288;19;20070;-68
2023/07/31 09:21:04;;;;;;;4.22;3.05;;;;;;;17.87;88.98;100313.91;7391549;19;20014;-68
2023/07/31 09:23:47;;;;;;;4.18;2.63;;;;;;;17.98;87.03;100313.28;7393263;19;20015;-67
2023/07/31 09:26:32;;;;;;;6.13;2.57;;;;;;;18.07;83.97;100308.28;7393145;19;20018;-67
2023/07/31 09:29:00;;;;;;;4.18;2.53;;;;;;;18.18;86.27;100314.75;7392385;19;20580;-68
2023/07/31 09:31:47;;;;;;;3.85;2.53;;;;;;;18.25;82.69;100316.09;7395993;19;20498;-68
2023/07/31 09:34:21;;;;;;;4.32;2.53;;;;;;;18.33;85.18;100315.63;7398515;19;20003;-67
2023/07/31 09:36:53;;;;;;;5.55;2.67;;;;;;;18.38;84.75;100317.03;7398111;19;20018;-67
2023/07/31 09:39:24;;;;;;;5.38;2.90;;;;;;;18.45;83.84;100306.91;7399514;19;20010;-67
2023/07/31 09:41:57;;;;;;;6.43;2.60;;;;;;;18.52;82.22;100312.69;7397617;19;20070;-67
2023/07/31 09:44:40;;;;;;;4.63;2.90;;;;;;;18.63;81.32;100304.06;7398070;19;20031;-67
2023/07/31 09:47:08;;;;;;;5.07;2.70;;;;;;;18.73;80.25;100303.38;7397604;19;20035;-68
2023/07/31 09:49:37;;;;;;;4.22;3.00;;;;;;;18.82;80.25;100299.28;7399731;19;20028;-66
2023/07/31 09:52:14;;;;;;;5.53;2.55;;;;;;;18.92;77.63;100302.25;7399561;19;20031;-67
2023/07/31 09:54:45;;;;;;;6.68;3.15;;;;;;;19.03;78.56;100309.50;7400200;19;20390;-67
2023/07/31 09:57:16;;;;;;;7.13;2.88;;;;;;;19.15;79.30;100305.22;7397841;19;20011;-67
2023/07/31 09:59:45;;;;;;;6.03;2.60;;;;;;;19.26;79.28;100302.72;7399248;19;20011;-67
2023/07/31 10:02:18;;;;;;;5.07;2.53;;;;;;;19.30;76.26;100304.22;7399776;19;20082;-68
2023/07/31 10:04:48;;;;;;;6.47;2.45;;;;;;;19.36;76.99;100308.28;7399834;19;20034;-67
2023/07/31 10:07:19;;;;;;;5.03;2.38;;;;;;;19.33;74.58;100301.34;7397882;19;20096;-67
2023/07/31 10:09:53;;;;;;;5.00;2.05;;;;;;;19.33;74.40;100301.34;7399531;19;20079;-69
2023/07/31 10:12:24;;;;;;;3.22;2.25;;;;;;;19.37;76.58;100302.00;7400314;19;20010;-68
2023/07/31 10:14:54;;;;;;;3.53;2.28;;;;;;;19.47;76.43;100299.59;7396867;19;20019;-67
2023/07/31 10:17:24;;;;;;;5.65;2.83;;;;;;;19.52;72.00;100300.16;7397423;19;20074;-67
2023/07/31 10:19:53;;;;;;;4.57;2.60;;;;;;;19.60;73.96;100296.97;7397651;19;20006;-67
2023/07/31 10:22:22;;;;;;;6.05;2.85;;;;;;;19.69;73.72;100305.19;7398916;19;20074;-67
2023/07/31 10:24:57;;;;;;;7.15;2.67;;;;;;;19.80;71.85;100298.28;7395884;19;20440;-67
2023/07/31 10:27:25;;;;;;;9.07;2.42;;;;;;;19.87;70.14;100302.28;7397326;19;20017;-67
2023/07/31 10:29:55;;;;;;;4.85;2.03;;;;;;;19.90;69.49;100294.09;7398739;19;20426;-67
2023/07/31 10:32:25;;;;;;;6.10;2.65;;;;;;;19.95;70.89;100288.44;7397221;19;20028;-68
2023/07/31 10:34:54;;;;;;;3.55;2.10;;;;;;;19.99;71.42;100280.16;7395571;19;20075;-67
2023/07/31 10:37:27;;;;;;;5.30;2.53;;;;;;;20.08;71.31;100291.13;7396662;19;20014;-68
2023/07/31 10:40:07;;;;;;;5.93;2.67;;;;;;;20.14;69.73;100282.72;7398168;19;20426;-67
2023/07/31 10:42:37;;;;;;;4.28;2.75;;;;;;;20.18;71.61;100284.19;7396360;19;20474;-68
2023/07/31 10:45:07;;;;;;;3.90;2.38;;;;;;;20.19;71.31;100283.22;7398211;19;20033;-67
2023/07/31 10:47:41;;;;;;;6.82;2.65;;;;;;;20.14;69.93;100283.56;7396115;19;20051;-67
2023/07/31 10:50:19;;;;;;;6.10;2.38;;;;;;;20.05;67.76;100280.69;7399271;19;20010;-68
2023/07/31 10:52:52;;;;;;;5.65;2.05;;;;;;;20.00;69.44;100283.66;7398746;19;20485;-68
2023/07/31 10:55:32;;;;;;;6.28;2.35;;;;;;;19.95;69.50;100283.13;7395600;19;20007;-68
2023/07/31 10:58:08;;;;;;;6.03;2.03;;;;;;;19.93;68.36;100277.03;7395527;19;20037;-68
2023/07/31 11:00:40;;;;;;;5.05;2.28;;;;;;;19.89;68.00;100275.56;7395572;19;20506;-68
2023/07/31 11:03:11;;;;;;;6.07;1.85;;;;;;;19.84;69.41;100265.22;7397783;19;20090;-68
2023/07/31 11:05:53;;;;;;;4.95;2.30;;;;;;;19.81;68.37;100270.72;7397595;19;20021;-68
2023/07/31 11:08:24;;;;;;;5.82;2.75;;;;;;;19.77;70.91;100266.56;7395644;19;20082;-68
2023/07/31 11:11:09;;;;;;;4.65;2.55;;;;;;;19.70;68.09;100267.00;7397622;19;20070;-68
2023/07/31 11:13:44;;;;;;;5.65;2.25;;;;;;;19.68;69.91;100271.56;7395396;19;20010;-68
2023/07/31 11:16:13;;;;;;;5.50;2.33;;;;;;;19.68;68.68;100265.38;7396877;19;20097;-67
2023/07/31 11:18:43;;;;;;;5.18;2.30;;;;;;;19.62;69.62;100277.28;7396319;19;20018;-68
2023/07/31 11:21:15;;;;;;;5.75;2.40;;;;;;;19.56;67.51;100277.69;7394701;19;20382;-68
2023/07/31 11:23:44;;;;;;;7.13;2.03;;;;;;;19.53;69.01;100277.91;7395527;19;20070;-67
2023/07/31 11:26:15;;;;;;;3.25;1.75;;;;;;;19.51;68.60;100282.47;7395882;19;20470;-67
2023/07/31 11:28:44;;;;;;;2.95;1.70;;;;;;;19.56;69.71;100276.84;7397379;19;20070;-68
2023/07/31 11:31:13;;;;;;;3.75;1.33;;;;;;;19.60;69.34;100265.03;7396532;19;20014;-68
2023/07/31 11:33:41;;;;;;;2.63;1.88;;;;;;;19.66;68.80;100262.84;7394002;19;20015;-68
2023/07/31 11:36:17;;;;;;;4.13;1.70;;;;;;;19.69;66.81;100265.28;7393993;19;20477;-68
2023/07/31 11:38:46;;;;;;;4.53;1.83;;;;;;;19.74;66.41;100248.13;7393982;19;20049;-68